createdAt,value
2022-09-17T00:01:37.997Z,7.40
2022-09-17T00:03:39.761Z,7.30
2022-09-17T00:05:41.435Z,7.40
2022-09-17T00:07:43.055Z,7.40
2022-09-17T00:09:44.748Z,7.40
2022-09-17T00:11:46.566Z,7.40
2022-09-17T00:13:50.162Z,7.50
2022-09-17T00:15:52.510Z,7.50
2022-09-17T00:17:56.924Z,7.40
2022-09-17T00:19:58.644Z,7.40
2022-09-17T00:22:00.324Z,7.40
2022-09-17T00:24:05.328Z,7.40
2022-09-17T00:26:07.897Z,7.40
2022-09-17T00:28:10.352Z,7.40
2022-09-17T00:30:13.038Z,7.50
2022-09-17T00:32:14.786Z,7.50
2022-09-17T00:34:21.278Z,7.50
2022-09-17T00:36:22.997Z,7.60
2022-09-17T00:38:24.722Z,7.60
2022-09-17T00:40:31.941Z,7.70
2022-09-17T00:42:33.752Z,7.70
2022-09-17T00:44:45.131Z,7.80
2022-09-17T00:46:47.199Z,7.80
2022-09-17T00:48:49.881Z,7.90
2022-09-17T00:50:52.971Z,7.90
2022-09-17T00:52:59.601Z,7.90
2022-09-17T00:55:43.521Z,7.90
2022-09-17T00:57:45.996Z,7.90
2022-09-17T00:59:48.249Z,7.90
2022-09-17T01:01:50.485Z,8.00
2022-09-17T01:03:52.224Z,8.00
2022-09-17T01:06:14.935Z,8.00
2022-09-17T01:08:32.466Z,8.00
2022-09-17T01:10:45.803Z,8.00
2022-09-17T01:13:16.979Z,8.00
2022-09-17T01:15:42.406Z,8.00
2022-09-17T01:17:49.206Z,8.00
2022-09-17T01:20:28.471Z,7.90
2022-09-17T01:23:01.160Z,7.80
2022-09-17T01:25:25.002Z,7.70
2022-09-17T01:27:49.898Z,7.60
2022-09-17T01:30:21.887Z,7.50
2022-09-17T01:32:31.343Z,7.50
2022-09-17T01:34:42.138Z,7.50
2022-09-17T01:36:58.654Z,7.50
2022-09-17T01:39:42.419Z,7.60
2022-09-17T01:41:54.110Z,7.60
2022-09-17T01:44:16.889Z,7.60
2022-09-17T01:46:25.845Z,7.60
2022-09-17T01:48:33.801Z,7.60
2022-09-17T01:50:47.722Z,7.60
2022-09-17T01:52:53.248Z,7.60
2022-09-17T01:55:00.655Z,7.60
2022-09-17T01:57:10.578Z,7.60
2022-09-17T01:59:20.559Z,7.70
2022-09-17T02:01:24.867Z,7.80
2022-09-17T02:03:36.454Z,7.80
2022-09-17T02:05:43.486Z,7.80
2022-09-17T02:07:55.999Z,7.80
2022-09-17T02:10:07.609Z,7.80
2022-09-17T02:12:15.970Z,7.80
2022-09-17T02:14:31.584Z,7.90
2022-09-17T02:16:35.940Z,7.90
2022-09-17T02:18:46.209Z,7.80
2022-09-17T02:20:54.230Z,7.80
2022-09-17T02:23:01.728Z,7.90
2022-09-17T02:25:08.524Z,7.80
2022-09-17T02:27:46.089Z,7.80
2022-09-17T02:29:47.835Z,7.80
2022-09-17T02:31:49.570Z,7.70
2022-09-17T02:33:54.457Z,7.70
2022-09-17T02:35:56.199Z,7.70
2022-09-17T02:37:58.765Z,7.60
2022-09-17T02:40:01.130Z,7.60
2022-09-17T02:42:17.722Z,7.50
2022-09-17T02:44:42.514Z,7.50
2022-09-17T02:47:11.938Z,7.50
2022-09-17T02:49:45.198Z,7.40
2022-09-17T02:52:11.190Z,7.40
2022-09-17T02:54:25.726Z,7.40
2022-09-17T02:56:47.394Z,7.40
2022-09-17T02:59:28.786Z,7.30
2022-09-17T03:01:34.679Z,7.20
2022-09-17T03:03:50.233Z,7.20
2022-09-17T03:05:54.330Z,7.10
2022-09-17T03:07:57.280Z,7.00
2022-09-17T03:09:58.925Z,7.00
2022-09-17T03:12:02.149Z,7.00
2022-09-17T03:14:04.474Z,6.90
2022-09-17T03:16:08.102Z,6.90
2022-09-17T03:18:09.809Z,7.00
2022-09-17T03:20:11.466Z,7.00
2022-09-17T03:22:13.165Z,7.10
2022-09-17T03:24:14.805Z,7.20
2022-09-17T03:26:16.472Z,7.20
2022-09-17T03:28:18.213Z,7.20
2022-09-17T03:30:20.247Z,7.30
2022-09-17T03:32:21.869Z,7.30
2022-09-17T03:34:23.886Z,7.30
2022-09-17T03:36:25.619Z,7.30
2022-09-17T03:38:27.214Z,7.40
2022-09-17T03:40:29.228Z,7.40
2022-09-17T03:42:30.937Z,7.40
2022-09-17T03:44:32.596Z,7.40
2022-09-17T03:46:34.282Z,7.50
2022-09-17T03:48:37.302Z,7.50
2022-09-17T03:50:38.987Z,7.50
2022-09-17T03:52:40.634Z,7.50
2022-09-17T03:54:42.278Z,7.50
2022-09-17T03:56:46.062Z,7.50
2022-09-17T03:58:47.705Z,7.50
2022-09-17T04:00:53.188Z,7.50
2022-09-17T04:02:54.899Z,7.50
2022-09-17T04:04:56.557Z,7.40
2022-09-17T04:06:58.366Z,7.40
2022-09-17T04:09:01.084Z,7.30
2022-09-17T04:11:03.006Z,7.40
2022-09-17T04:13:06.187Z,7.40
2022-09-17T04:15:08.454Z,7.40
2022-09-17T04:17:10.129Z,7.40
2022-09-17T04:19:11.737Z,7.50
2022-09-17T04:21:13.534Z,7.40
2022-09-17T04:23:17.240Z,7.50
2022-09-17T04:25:19.298Z,7.50
2022-09-17T04:27:21.262Z,7.50
2022-09-17T04:29:22.867Z,7.50
2022-09-17T04:31:25.002Z,7.50
2022-09-17T04:33:26.774Z,7.50
2022-09-17T04:35:28.393Z,7.50
2022-09-17T04:37:30.428Z,7.50
2022-09-17T04:39:32.120Z,7.50
2022-09-17T04:41:33.822Z,7.50
2022-09-17T04:43:35.785Z,7.50
2022-09-17T04:45:37.436Z,7.50
2022-09-17T04:47:40.097Z,7.50
2022-09-17T04:49:41.787Z,7.50
2022-09-17T04:51:43.530Z,7.50
2022-09-17T04:53:45.552Z,7.50
2022-09-17T04:55:47.230Z,7.50
2022-09-17T04:57:53.616Z,7.50
2022-09-17T04:59:55.209Z,7.50
2022-09-17T05:01:57.040Z,7.50
2022-09-17T05:03:58.871Z,7.50
2022-09-17T05:06:00.590Z,7.50
2022-09-17T05:08:02.610Z,7.50
2022-09-17T05:10:04.905Z,7.50
2022-09-17T05:12:08.102Z,7.50
2022-09-17T05:14:09.708Z,7.50
2022-09-17T05:16:11.838Z,7.40
2022-09-17T05:18:13.734Z,7.40
2022-09-17T05:20:16.699Z,7.40
2022-09-17T05:22:21.443Z,7.40
2022-09-17T05:24:23.614Z,7.50
2022-09-17T05:26:25.371Z,7.50
2022-09-17T05:28:28.210Z,7.50
2022-09-17T05:30:30.466Z,7.50
2022-09-17T05:32:35.977Z,7.50
2022-09-17T05:34:37.997Z,7.50
2022-09-17T05:36:39.616Z,7.50
2022-09-17T05:38:41.779Z,7.60
2022-09-17T05:40:43.687Z,7.60
2022-09-17T05:42:45.987Z,7.60
2022-09-17T05:44:47.606Z,7.70
2022-09-17T05:46:49.307Z,7.60
2022-09-17T05:48:50.985Z,7.70
2022-09-17T05:50:55.084Z,7.70
2022-09-17T05:52:57.005Z,7.70
2022-09-17T05:54:58.601Z,7.70
2022-09-17T05:57:00.258Z,7.70
2022-09-17T05:59:02.055Z,7.70
2022-09-17T06:01:04.337Z,7.70
2022-09-17T06:03:06.030Z,7.70
2022-09-17T06:05:08.203Z,7.70
2022-09-17T06:07:10.093Z,7.80
2022-09-17T06:09:12.479Z,7.80
2022-09-17T06:11:14.078Z,7.90
2022-09-17T06:13:20.282Z,8.00
2022-09-17T06:15:21.906Z,8.10
2022-09-17T06:17:23.634Z,8.10
2022-09-17T06:19:25.275Z,8.10
2022-09-17T06:21:26.920Z,8.00
2022-09-17T06:23:35.052Z,8.00
2022-09-17T06:25:36.775Z,8.00
2022-09-17T06:27:38.950Z,8.00
2022-09-17T06:29:40.905Z,8.00
2022-09-17T06:31:46.091Z,8.00
2022-09-17T06:33:48.373Z,7.80
2022-09-17T06:35:56.043Z,7.80
2022-09-17T06:37:57.828Z,7.80
2022-09-17T06:39:59.764Z,7.80
2022-09-17T06:42:01.452Z,7.80
2022-09-17T06:44:03.647Z,7.80
2022-09-17T06:46:06.333Z,7.80
2022-09-17T06:48:08.002Z,7.80
2022-09-17T06:50:09.901Z,7.80
2022-09-17T06:52:11.610Z,7.80
2022-09-17T06:54:13.486Z,7.80
2022-09-17T06:56:15.612Z,7.80
2022-09-17T06:58:17.532Z,7.80
2022-09-17T07:00:19.218Z,7.80
2022-09-17T07:02:21.446Z,7.80
2022-09-17T07:04:23.190Z,7.80
2022-09-17T07:06:24.841Z,7.80
2022-09-17T07:08:27.079Z,7.90
2022-09-17T07:10:29.369Z,7.90
2022-09-17T07:12:31.305Z,7.90
2022-09-17T07:14:33.932Z,7.80
2022-09-17T07:16:36.725Z,7.80
2022-09-17T07:18:40.987Z,7.80
2022-09-17T07:20:42.611Z,7.90
2022-09-17T07:22:44.661Z,7.90
2022-09-17T07:24:46.325Z,7.90
2022-09-17T07:26:47.921Z,7.90
2022-09-17T07:28:49.558Z,7.90
2022-09-17T07:30:52.020Z,7.90
2022-09-17T07:32:53.785Z,7.80
2022-09-17T07:34:55.423Z,7.80
2022-09-17T07:36:57.138Z,7.70
2022-09-17T07:38:58.754Z,7.60
2022-09-17T07:41:03.530Z,7.60
2022-09-17T07:43:05.440Z,7.60
2022-09-17T07:45:07.646Z,7.60
2022-09-17T07:47:09.941Z,7.60
2022-09-17T07:49:12.201Z,7.60
2022-09-17T07:51:32.073Z,7.60
2022-09-17T07:53:33.722Z,7.70
2022-09-17T07:55:35.398Z,7.80
2022-09-17T07:57:37.049Z,7.70
2022-09-17T07:59:38.661Z,7.60
2022-09-17T08:01:40.836Z,7.60
2022-09-17T08:03:43.807Z,7.60
2022-09-17T08:05:45.761Z,7.60
2022-09-17T08:07:55.386Z,7.50
2022-09-17T08:09:57.105Z,7.50
2022-09-17T08:11:59.522Z,7.50
2022-09-17T08:14:01.436Z,7.50
2022-09-17T08:16:05.798Z,7.50
2022-09-17T08:18:09.661Z,7.60
2022-09-17T08:20:12.043Z,7.70
2022-09-17T08:22:13.655Z,7.60
2022-09-17T08:24:15.483Z,7.70
2022-09-17T08:26:22.866Z,7.70
2022-09-17T08:28:26.090Z,7.70
2022-09-17T08:30:28.273Z,7.70
2022-09-17T08:32:30.701Z,7.70
2022-09-17T08:34:32.666Z,7.70
2022-09-17T08:36:34.257Z,7.80
2022-09-17T08:38:41.183Z,7.90
2022-09-17T08:41:07.755Z,7.90
2022-09-17T08:43:15.931Z,7.90
2022-09-17T08:45:19.176Z,8.00
2022-09-17T08:47:33.400Z,8.20
2022-09-17T08:49:50.737Z,8.30
2022-09-17T08:52:20.118Z,8.40
2022-09-17T08:54:44.807Z,8.60
2022-09-17T08:56:51.946Z,9.00
2022-09-17T08:58:56.785Z,9.30
2022-09-17T09:01:14.310Z,9.60
2022-09-17T09:03:50.193Z,10.30
2022-09-17T09:05:53.009Z,10.90
2022-09-17T09:08:04.333Z,10.80
2022-09-17T09:10:23.512Z,10.80
2022-09-17T09:12:27.468Z,10.70
2022-09-17T09:14:37.389Z,10.70
2022-09-17T09:16:41.516Z,11.00
2022-09-17T09:18:43.707Z,11.60
2022-09-17T09:21:00.784Z,11.40
2022-09-17T09:23:16.657Z,11.50
2022-09-17T09:25:27.000Z,11.30
2022-09-17T09:27:32.372Z,11.00
2022-09-17T09:30:04.085Z,10.40
2022-09-17T09:32:20.759Z,9.90
2022-09-17T09:34:23.865Z,9.70
2022-09-17T09:36:29.693Z,9.60
2022-09-17T09:38:56.859Z,10.00
2022-09-17T09:41:13.277Z,10.70
2022-09-17T09:43:20.411Z,11.50
2022-09-17T09:45:51.505Z,11.50
2022-09-17T09:48:35.053Z,11.50
2022-09-17T09:51:06.503Z,11.30
2022-09-17T09:53:36.089Z,11.20
2022-09-17T09:56:05.633Z,11.30
2022-09-17T09:58:35.655Z,11.80
2022-09-17T10:00:39.824Z,11.80
2022-09-17T10:02:41.781Z,11.60
2022-09-17T10:04:43.906Z,11.10
2022-09-17T10:06:47.258Z,10.90
2022-09-17T10:09:10.266Z,11.20
2022-09-17T10:11:11.861Z,11.50
2022-09-17T10:13:15.051Z,11.50
2022-09-17T10:15:28.790Z,11.80
2022-09-17T10:17:30.449Z,11.70
2022-09-17T10:19:32.064Z,11.70
2022-09-17T10:21:36.397Z,11.70
2022-09-17T10:23:43.337Z,12.00
2022-09-17T10:25:45.598Z,12.80
2022-09-17T10:27:47.852Z,13.10
2022-09-17T10:29:53.007Z,13.20
2022-09-17T10:31:57.055Z,13.30
2022-09-17T10:34:02.738Z,13.30
2022-09-17T10:36:10.027Z,14.00
2022-09-17T10:38:32.058Z,15.40
2022-09-17T10:40:33.963Z,17.00
2022-09-17T10:42:35.613Z,17.90
2022-09-17T10:44:38.066Z,17.40
2022-09-17T10:46:39.928Z,17.20
2022-09-17T10:49:08.125Z,16.50
2022-09-17T10:51:11.240Z,15.30
2022-09-17T10:53:17.536Z,14.40
2022-09-17T10:55:28.311Z,13.60
2022-09-17T10:57:38.050Z,13.20
2022-09-17T10:59:58.837Z,14.30
2022-09-17T11:02:09.512Z,15.70
2022-09-17T11:04:24.075Z,16.50
2022-09-17T11:06:43.789Z,17.00
2022-09-17T11:08:54.182Z,17.20
2022-09-17T11:11:11.415Z,17.40
2022-09-17T11:13:42.485Z,16.60
2022-09-17T11:16:04.223Z,15.70
2022-09-17T11:18:24.447Z,14.90
2022-09-17T11:20:35.171Z,14.30
2022-09-17T11:22:58.377Z,14.60
2022-09-17T11:25:15.196Z,14.80
2022-09-17T11:27:28.564Z,14.50
2022-09-17T11:29:36.553Z,14.50
2022-09-17T11:32:00.319Z,14.30
2022-09-17T11:34:17.087Z,14.30
2022-09-17T11:36:33.295Z,14.20
2022-09-17T11:38:42.852Z,14.00
2022-09-17T11:40:50.343Z,14.30
2022-09-17T11:43:01.137Z,14.40
2022-09-17T11:45:11.548Z,14.30
2022-09-17T11:47:15.362Z,13.60
2022-09-17T11:49:17.003Z,13.40
2022-09-17T11:51:39.821Z,13.20
2022-09-17T11:53:47.607Z,13.10
2022-09-17T11:55:55.715Z,13.20
2022-09-17T11:58:07.866Z,13.00
2022-09-17T12:00:18.760Z,12.60
2022-09-17T12:02:26.995Z,12.20
2022-09-17T12:04:31.866Z,11.70
2022-09-17T12:06:49.306Z,11.50
2022-09-17T12:09:04.883Z,11.70
2022-09-17T12:11:33.534Z,12.50
2022-09-17T12:13:48.592Z,13.00
2022-09-17T12:15:57.845Z,13.10
2022-09-17T12:18:31.588Z,13.00
2022-09-17T12:20:37.388Z,12.70
2022-09-17T12:22:41.994Z,12.40
2022-09-17T12:24:43.872Z,12.10
2022-09-17T12:27:04.107Z,12.20
2022-09-17T12:29:24.715Z,12.70
2022-09-17T12:31:35.361Z,13.10
2022-09-17T12:33:52.622Z,13.70
2022-09-17T12:36:17.167Z,14.30
2022-09-17T12:38:21.802Z,15.30
2022-09-17T12:40:42.648Z,15.50
2022-09-17T12:43:21.182Z,15.50
2022-09-17T12:45:53.999Z,15.10
2022-09-17T12:48:01.417Z,14.80
2022-09-17T12:50:48.666Z,14.20
2022-09-17T12:52:52.663Z,14.40
2022-09-17T12:55:13.186Z,15.00
2022-09-17T12:58:00.583Z,15.30
2022-09-17T13:00:10.390Z,14.90
2022-09-17T13:02:18.326Z,15.20
2022-09-17T13:05:00.450Z,16.10
2022-09-17T13:07:21.023Z,16.70
2022-09-17T13:09:40.531Z,16.70
2022-09-17T13:12:15.887Z,15.40
2022-09-17T13:14:50.403Z,14.80
2022-09-17T13:17:02.968Z,14.70
2022-09-17T13:19:27.277Z,14.70
2022-09-17T13:21:51.833Z,14.30
2022-09-17T13:23:55.178Z,13.90
2022-09-17T13:25:57.557Z,13.50
2022-09-17T13:28:09.023Z,13.30
2022-09-17T13:30:15.606Z,13.30
2022-09-17T13:32:35.481Z,13.40
2022-09-17T13:34:37.076Z,13.50
2022-09-17T13:36:43.170Z,13.50
2022-09-17T13:38:45.408Z,13.20
2022-09-17T13:40:47.702Z,13.40
2022-09-17T13:42:55.523Z,13.70
2022-09-17T13:45:13.287Z,13.70
2022-09-17T13:47:36.948Z,13.80
2022-09-17T13:49:49.750Z,14.10
2022-09-17T13:51:52.149Z,14.10
2022-09-17T13:53:55.191Z,14.60
2022-09-17T13:55:59.309Z,14.50
2022-09-17T13:58:09.718Z,14.80
2022-09-17T14:00:49.916Z,14.90
2022-09-17T14:02:51.602Z,15.00
2022-09-17T14:05:17.956Z,14.90
2022-09-17T14:07:23.451Z,15.10
2022-09-17T14:09:45.904Z,15.20
2022-09-17T14:11:47.548Z,14.70
2022-09-17T14:14:04.876Z,14.60
2022-09-17T14:16:42.793Z,14.70
2022-09-17T14:18:55.051Z,14.50
2022-09-17T14:21:09.279Z,14.10
2022-09-17T14:23:12.862Z,13.40
2022-09-17T14:25:22.213Z,13.00
2022-09-17T14:27:58.112Z,12.80
2022-09-17T14:30:22.767Z,12.90
2022-09-17T14:32:32.261Z,13.30
2022-09-17T14:34:34.084Z,13.70
2022-09-17T14:36:38.310Z,13.80
2022-09-17T14:38:50.311Z,13.90
2022-09-17T14:41:03.543Z,14.00
2022-09-17T14:43:05.349Z,14.10
2022-09-17T14:45:21.354Z,14.10
2022-09-17T14:47:23.649Z,13.90
2022-09-17T14:49:32.366Z,13.30
2022-09-17T14:51:39.875Z,12.50
2022-09-17T14:53:41.502Z,12.40
2022-09-17T14:55:44.693Z,12.40
2022-09-17T14:57:54.670Z,12.40
2022-09-17T14:59:57.669Z,12.50
2022-09-17T15:01:59.882Z,12.50
2022-09-17T15:04:31.070Z,12.40
2022-09-17T15:06:32.723Z,12.00
2022-09-17T15:08:35.099Z,11.90
2022-09-17T15:10:54.211Z,11.90
2022-09-17T15:12:56.022Z,11.80
2022-09-17T15:14:58.142Z,11.70
2022-09-17T15:17:02.786Z,11.70
2022-09-17T15:19:04.732Z,11.60
2022-09-17T15:21:20.896Z,11.60
2022-09-17T15:23:28.345Z,11.80
2022-09-17T15:25:30.669Z,11.90
2022-09-17T15:27:41.333Z,11.90
2022-09-17T15:29:46.602Z,11.80
2022-09-17T15:31:48.564Z,11.60
2022-09-17T15:33:51.408Z,11.60
2022-09-17T15:36:23.195Z,11.70
2022-09-17T15:38:29.920Z,11.80
2022-09-17T15:40:41.582Z,11.80
2022-09-17T15:42:56.990Z,11.70
2022-09-17T15:45:22.110Z,11.60
2022-09-17T15:47:48.147Z,11.40
2022-09-17T15:50:17.938Z,11.20
2022-09-17T15:52:33.755Z,11.10
2022-09-17T15:54:37.861Z,11.00
2022-09-17T15:56:41.117Z,11.10
2022-09-17T15:58:42.735Z,11.50
2022-09-17T16:00:44.422Z,12.00
2022-09-17T16:02:46.252Z,12.50
2022-09-17T16:04:52.678Z,13.00
2022-09-17T16:07:07.794Z,13.20
2022-09-17T16:09:46.851Z,13.40
2022-09-17T16:11:48.595Z,13.60
2022-09-17T16:13:52.149Z,13.60
2022-09-17T16:15:53.902Z,13.30
2022-09-17T16:17:55.954Z,12.90
2022-09-17T16:20:00.336Z,12.70
2022-09-17T16:22:04.609Z,12.30
2022-09-17T16:24:06.263Z,12.10
2022-09-17T16:26:14.002Z,11.80
2022-09-17T16:28:20.358Z,11.40
2022-09-17T16:30:24.701Z,11.30
2022-09-17T16:32:26.332Z,11.20
2022-09-17T16:34:28.049Z,11.10
2022-09-17T16:36:32.273Z,11.00
2022-09-17T16:38:34.078Z,11.00
2022-09-17T16:40:43.377Z,11.00
2022-09-17T16:42:46.330Z,11.00
2022-09-17T16:44:48.055Z,11.00
2022-09-17T16:46:49.763Z,11.00
2022-09-17T16:48:51.606Z,10.90
2022-09-17T16:50:53.335Z,10.90
2022-09-17T16:52:55.070Z,10.80
2022-09-17T16:54:56.885Z,10.80
2022-09-17T16:56:58.747Z,10.70
2022-09-17T16:59:00.366Z,10.60
2022-09-17T17:01:09.727Z,10.50
2022-09-17T17:03:13.539Z,10.50
2022-09-17T17:05:15.970Z,10.40
2022-09-17T17:07:17.621Z,10.40
2022-09-17T17:09:19.238Z,10.30
2022-09-17T17:11:21.041Z,10.30
2022-09-17T17:13:23.013Z,10.30
2022-09-17T17:15:24.992Z,10.30
2022-09-17T17:17:27.050Z,10.30
2022-09-17T17:19:30.401Z,10.30
2022-09-17T17:21:32.750Z,10.30
2022-09-17T17:23:35.108Z,10.40
2022-09-17T17:25:36.846Z,10.40
2022-09-17T17:27:38.660Z,10.40
2022-09-17T17:29:40.982Z,10.40
2022-09-17T17:31:43.131Z,10.40
2022-09-17T17:33:45.579Z,10.30
2022-09-17T17:35:47.326Z,9.90
2022-09-17T17:37:49.009Z,9.30
2022-09-17T17:39:50.715Z,8.80
2022-09-17T17:41:54.375Z,8.60
2022-09-17T17:43:57.799Z,8.40
2022-09-17T17:46:00.207Z,8.30
2022-09-17T17:48:02.157Z,8.20
2022-09-17T17:50:04.170Z,8.20
2022-09-17T17:52:06.214Z,8.10
2022-09-17T17:54:08.157Z,8.10
2022-09-17T17:56:11.005Z,8.00
2022-09-17T17:58:12.617Z,8.00
2022-09-17T18:00:16.371Z,8.00
2022-09-17T18:02:18.046Z,8.10
2022-09-17T18:04:19.741Z,8.10
2022-09-17T18:06:21.354Z,8.10
2022-09-17T18:08:23.991Z,8.10
2022-09-17T18:10:25.642Z,8.20
2022-09-17T18:12:27.358Z,8.20
2022-09-17T18:14:29.042Z,8.20
2022-09-17T18:16:30.760Z,8.30
2022-09-17T18:18:43.536Z,8.30
2022-09-17T18:20:46.386Z,8.30
2022-09-17T18:22:48.097Z,8.30
2022-09-17T18:24:50.806Z,8.30
2022-09-17T18:26:52.515Z,8.30
2022-09-17T18:28:54.592Z,8.30
2022-09-17T18:30:57.700Z,8.30
2022-09-17T18:32:59.442Z,8.40
2022-09-17T18:35:01.058Z,8.40
2022-09-17T18:37:03.512Z,8.40
2022-09-17T18:39:33.161Z,8.40
2022-09-17T18:41:29.517Z,8.40
2022-09-17T18:43:32.745Z,8.40
2022-09-17T18:45:34.655Z,8.40
2022-09-17T18:47:36.442Z,8.40
2022-09-17T18:49:38.060Z,8.40
2022-09-17T18:51:39.708Z,8.40
2022-09-17T18:53:41.946Z,8.30
2022-09-17T18:55:46.685Z,8.30
2022-09-17T18:57:52.225Z,8.30
2022-09-17T18:59:54.033Z,8.30
2022-09-17T19:01:55.737Z,8.30
2022-09-17T19:03:58.565Z,8.30
2022-09-17T19:06:01.338Z,8.20
2022-09-17T19:08:03.585Z,8.20
2022-09-17T19:10:05.601Z,8.20
2022-09-17T19:12:07.355Z,8.10
2022-09-17T19:14:10.609Z,8.10
2022-09-17T19:16:15.497Z,8.10
2022-09-17T19:18:17.506Z,8.10
2022-09-17T19:20:19.685Z,8.10
2022-09-17T19:22:21.377Z,8.10
2022-09-17T19:24:23.017Z,8.10
2022-09-17T19:26:26.979Z,8.10
2022-09-17T19:28:28.695Z,8.10
2022-09-17T19:30:30.990Z,8.10
2022-09-17T19:32:32.958Z,8.10
2022-09-17T19:34:34.783Z,8.10
2022-09-17T19:36:36.402Z,8.10
2022-09-17T19:38:38.513Z,8.10
2022-09-17T19:40:40.943Z,8.00
2022-09-17T19:42:42.662Z,7.90
2022-09-17T19:44:44.290Z,7.80
2022-09-17T19:46:47.235Z,7.70
2022-09-17T19:48:50.988Z,7.60
2022-09-17T19:50:53.645Z,7.60
2022-09-17T19:52:55.382Z,7.50
2022-09-17T19:54:57.069Z,7.50
2022-09-17T19:56:58.942Z,7.40
2022-09-17T19:59:00.554Z,7.30
2022-09-17T20:01:06.418Z,7.30
2022-09-17T20:03:08.807Z,7.20
2022-09-17T20:05:10.514Z,7.10
2022-09-17T20:07:12.169Z,7.10
2022-09-17T20:09:14.049Z,7.00
2022-09-17T20:11:16.530Z,6.90
2022-09-17T20:13:18.629Z,6.90
2022-09-17T20:15:20.494Z,6.90
2022-09-17T20:17:23.854Z,6.90
2022-09-17T20:19:25.854Z,6.90
2022-09-17T20:21:29.616Z,7.00
2022-09-17T20:23:35.077Z,6.90
2022-09-17T20:25:36.745Z,7.00
2022-09-17T20:27:38.786Z,7.00
2022-09-17T20:29:40.910Z,7.00
2022-09-17T20:31:42.729Z,7.00
2022-09-17T20:33:44.795Z,7.00
2022-09-17T20:35:46.557Z,7.00
2022-09-17T20:40:10.417Z,7.10
2022-09-17T20:42:12.033Z,7.10
2022-09-17T20:44:13.883Z,7.20
2022-09-17T20:46:17.197Z,7.20
2022-09-17T20:48:18.945Z,7.20
2022-09-17T20:50:20.769Z,7.20
2022-09-17T20:52:22.477Z,7.20
2022-09-17T20:54:24.106Z,7.20
2022-09-17T20:56:28.281Z,7.10
2022-09-17T20:58:32.066Z,7.10
2022-09-17T21:00:34.225Z,7.10
2022-09-17T21:02:35.910Z,7.00
2022-09-17T21:04:37.636Z,7.00
2022-09-17T21:06:41.540Z,7.00
2022-09-17T21:08:43.969Z,7.00
2022-09-17T21:10:45.598Z,7.00
2022-09-17T21:12:47.233Z,6.90
2022-09-17T21:14:49.050Z,6.90
2022-09-17T21:16:51.904Z,6.90
2022-09-17T21:18:58.551Z,6.90
2022-09-17T21:21:17.375Z,6.90
2022-09-17T21:23:27.461Z,6.90
2022-09-17T21:25:29.213Z,6.80
2022-09-17T21:27:32.039Z,6.80
2022-09-17T21:29:33.688Z,6.80
2022-09-17T21:31:37.217Z,6.80
2022-09-17T21:33:40.354Z,6.90
2022-09-17T21:35:41.954Z,6.90
2022-09-17T21:37:43.585Z,6.90
2022-09-17T21:39:45.212Z,7.00
2022-09-17T21:41:48.074Z,7.00
2022-09-17T21:43:51.619Z,7.10
2022-09-17T21:46:08.032Z,7.10
2022-09-17T21:48:09.689Z,7.10
2022-09-17T21:50:11.326Z,7.10
2022-09-17T21:52:13.662Z,7.10
2022-09-17T21:54:18.231Z,7.10
2022-09-17T21:56:22.349Z,7.00
2022-09-17T21:58:24.465Z,7.00
2022-09-17T22:00:27.702Z,7.00
2022-09-17T22:02:34.040Z,7.00
2022-09-17T22:04:36.606Z,7.00
2022-09-17T22:06:39.721Z,7.10
2022-09-17T22:08:41.865Z,7.20
2022-09-17T22:10:46.609Z,7.20
2022-09-17T22:12:48.212Z,7.20
2022-09-17T22:14:49.938Z,7.30
2022-09-17T22:16:54.447Z,7.30
2022-09-17T22:18:57.664Z,7.30
2022-09-17T22:21:00.116Z,7.30
2022-09-17T22:23:01.970Z,7.30
2022-09-17T22:25:04.461Z,7.30
2022-09-17T22:27:06.478Z,7.40
2022-09-17T22:29:13.663Z,7.40
2022-09-17T22:31:15.735Z,7.40
2022-09-17T22:33:17.427Z,7.40
2022-09-17T22:35:19.049Z,7.30
2022-09-17T22:37:21.154Z,7.30
2022-09-17T22:39:23.184Z,7.30
2022-09-17T22:41:28.486Z,7.20
2022-09-17T22:43:30.278Z,7.30
2022-09-17T22:45:31.977Z,7.20
2022-09-17T22:47:33.613Z,7.30
2022-09-17T22:49:35.252Z,7.30
2022-09-17T22:51:37.471Z,7.30
2022-09-17T22:53:40.506Z,7.30
2022-09-17T22:55:42.188Z,7.30
2022-09-17T22:57:43.840Z,7.30
2022-09-17T22:59:45.553Z,7.20
2022-09-17T23:01:47.813Z,7.30
2022-09-17T23:03:51.765Z,7.30
2022-09-17T23:05:58.289Z,7.30
2022-09-17T23:07:59.897Z,7.30
2022-09-17T23:10:01.816Z,7.30
2022-09-17T23:12:03.870Z,7.30
2022-09-17T23:14:08.890Z,7.30
2022-09-17T23:16:10.624Z,7.30
2022-09-17T23:18:12.418Z,7.30
2022-09-17T23:20:14.039Z,7.30
2022-09-17T23:22:15.700Z,7.30
2022-09-17T23:24:20.513Z,7.30
2022-09-17T23:26:24.574Z,7.40
2022-09-17T23:28:26.216Z,7.40
2022-09-17T23:30:28.665Z,7.40
2022-09-17T23:32:31.099Z,7.40
2022-09-17T23:34:35.031Z,7.40
2022-09-17T23:36:38.692Z,7.40
2022-09-17T23:38:43.239Z,7.40
2022-09-17T23:40:44.906Z,7.40
2022-09-17T23:42:46.531Z,7.40
2022-09-17T23:44:48.145Z,7.40
2022-09-17T23:46:49.815Z,7.40
2022-09-17T23:48:53.348Z,7.40
2022-09-17T23:50:55.073Z,7.40
2022-09-17T23:52:57.661Z,7.40
2022-09-17T23:54:59.266Z,7.40
2022-09-17T23:57:00.985Z,7.40
2022-09-17T23:59:03.968Z,7.40
